Time;durP1;ratioP1;P1;durP2;ratioP2;P2;SDS_P1;SDS_P2;PMS_P1;PMS_P2;Temp;Humidity;BMP_temperature;BMP_pressure;BME280_temperature;BME280_humidity;BME280_pressure;Samples;Min_cycle;Max_cycle;Signal;HPM_P1;HPM_P2
2021/04/14 00:01:36;;;;;;;5.6;3.1;;;;;;;;;;;;;
2021/04/14 00:04:01;;;;;;;3.9;3;;;;;;;;;;;;;
2021/04/14 00:06:26;;;;;;;4.4;3;;;;;;;;;;;;;
2021/04/14 00:08:52;;;;;;;5;3;;;;;;;;;;;;;
2021/04/14 00:11:16;;;;;;;3.9;3;;;;;;;;;;;;;
2021/04/14 00:13:44;;;;;;;3.1;2.4;;;;;;;;;;;;;
2021/04/14 00:16:09;;;;;;;8.5;3;;;;;;;;;;;;;
2021/04/14 00:18:34;;;;;;;3.2;2.1;;;;;;;;;;;;;
2021/04/14 00:20:59;;;;;;;6.4;3;;;;;;;;;;;;;
2021/04/14 00:23:25;;;;;;;2.8;2.3;;;;;;;;;;;;;
2021/04/14 00:25:51;;;;;;;4.7;2.8;;;;;;;;;;;;;
2021/04/14 00:28:15;;;;;;;6.6;3.1;;;;;;;;;;;;;
2021/04/14 00:30:40;;;;;;;6.4;2.5;;;;;;;;;;;;;
2021/04/14 00:33:06;;;;;;;3.6;2.6;;;;;;;;;;;;;
2021/04/14 00:35:31;;;;;;;6.5;3.4;;;;;;;;;;;;;
2021/04/14 00:37:57;;;;;;;4.7;3.3;;;;;;;;;;;;;
2021/04/14 00:40:22;;;;;;;4.7;2.5;;;;;;;;;;;;;
2021/04/14 00:42:49;;;;;;;3;2.5;;;;;;;;;;;;;
2021/04/14 00:45:14;;;;;;;4.2;3.2;;;;;;;;;;;;;
2021/04/14 00:47:39;;;;;;;4;2.4;;;;;;;;;;;;;
2021/04/14 00:50:05;;;;;;;2.5;2;;;;;;;;;;;;;
2021/04/14 00:52:31;;;;;;;2.5;2.3;;;;;;;;;;;;;
2021/04/14 00:54:56;;;;;;;4;1.8;;;;;;;;;;;;;
2021/04/14 00:57:22;;;;;;;2.9;2.3;;;;;;;;;;;;;
2021/04/14 00:59:47;;;;;;;2.3;2;;;;;;;;;;;;;
2021/04/14 01:02:13;;;;;;;2.5;2.3;;;;;;;;;;;;;
2021/04/14 01:04:40;;;;;;;3.4;2.1;;;;;;;;;;;;;
2021/04/14 01:07:04;;;;;;;4.9;3.6;;;;;;;;;;;;;
2021/04/14 01:09:29;;;;;;;2.4;1.9;;;;;;;;;;;;;
2021/04/14 01:11:56;;;;;;;4.2;2.9;;;;;;;;;;;;;
2021/04/14 01:14:21;;;;;;;2.3;2.1;;;;;;;;;;;;;
2021/04/14 01:16:54;;;;;;;3.4;2.4;;;;;;;;;;;;;
2021/04/14 01:19:21;;;;;;;7.1;3.2;;;;;;;;;;;;;
2021/04/14 01:21:46;;;;;;;4.4;3.2;;;;;;;;;;;;;
2021/04/14 01:24:11;;;;;;;4.5;2.4;;;;;;;;;;;;;
2021/04/14 01:26:37;;;;;;;2.6;2;;;;;;;;;;;;;
2021/04/14 01:29:02;;;;;;;5.4;3.2;;;;;;;;;;;;;
2021/04/14 01:31:33;;;;;;;5.4;2.8;;;;;;;;;;;;;
2021/04/14 01:33:52;;;;;;;3.8;2.3;;;;;;;;;;;;;
2021/04/14 01:36:17;;;;;;;2.6;2.1;;;;;;;;;;;;;
2021/04/14 01:38:43;;;;;;;4.8;3.5;;;;;;;;;;;;;
2021/04/14 01:41:09;;;;;;;3.2;2.5;;;;;;;;;;;;;
2021/04/14 01:43:34;;;;;;;3.5;2.2;;;;;;;;;;;;;
2021/04/14 01:45:59;;;;;;;4.5;2.6;;;;;;;;;;;;;
2021/04/14 01:48:24;;;;;;;2.3;2.1;;;;;;;;;;;;;
2021/04/14 01:53:27;;;;;;;3.7;2.5;;;;;;;;;;;;;
2021/04/14 01:55:52;;;;;;;2.2;1.8;;;;;;;;;;;;;
2021/04/14 01:58:18;;;;;;;4.2;2.5;;;;;;;;;;;;;
2021/04/14 02:00:44;;;;;;;6.4;3.1;;;;;;;;;;;;;
2021/04/14 02:03:10;;;;;;;2.9;2.1;;;;;;;;;;;;;
2021/04/14 02:05:35;;;;;;;4.4;3.1;;;;;;;;;;;;;
2021/04/14 02:08:01;;;;;;;7.7;3.7;;;;;;;;;;;;;
2021/04/14 02:10:26;;;;;;;5.1;2.6;;;;;;;;;;;;;
2021/04/14 02:12:51;;;;;;;4.1;3.1;;;;;;;;;;;;;
2021/04/14 02:15:16;;;;;;;3.6;2.5;;;;;;;;;;;;;
2021/04/14 02:17:41;;;;;;;4.4;2;;;;;;;;;;;;;
2021/04/14 02:20:06;;;;;;;3.6;3.1;;;;;;;;;;;;;
2021/04/14 02:22:31;;;;;;;2.7;2.2;;;;;;;;;;;;;
2021/04/14 02:24:57;;;;;;;3.8;2.3;;;;;;;;;;;;;
2021/04/14 02:27:22;;;;;;;4.5;3;;;;;;;;;;;;;
2021/04/14 02:29:47;;;;;;;2.4;2.2;;;;;;;;;;;;;
2021/04/14 02:32:12;;;;;;;5.5;3.4;;;;;;;;;;;;;
2021/04/14 02:34:37;;;;;;;3.4;2.5;;;;;;;;;;;;;
2021/04/14 02:37:02;;;;;;;5.2;3.3;;;;;;;;;;;;;
2021/04/14 02:39:28;;;;;;;4.2;2.9;;;;;;;;;;;;;
2021/04/14 02:41:53;;;;;;;6.4;3.6;;;;;;;;;;;;;
2021/04/14 02:44:20;;;;;;;3.3;2.5;;;;;;;;;;;;;
2021/04/14 02:46:45;;;;;;;4.3;2.8;;;;;;;;;;;;;
2021/04/14 02:49:11;;;;;;;6.8;3.6;;;;;;;;;;;;;
2021/04/14 02:51:36;;;;;;;4.3;2.7;;;;;;;;;;;;;
2021/04/14 02:54:01;;;;;;;5.7;2.7;;;;;;;;;;;;;
2021/04/14 02:56:27;;;;;;;2.5;2;;;;;;;;;;;;;
2021/04/14 02:58:53;;;;;;;3.4;2.4;;;;;;;;;;;;;
2021/04/14 03:01:18;;;;;;;4.5;2.4;;;;;;;;;;;;;
2021/04/14 03:03:43;;;;;;;2.8;2.3;;;;;;;;;;;;;
2021/04/14 03:06:08;;;;;;;4.6;3.1;;;;;;;;;;;;;
2021/04/14 03:08:34;;;;;;;3.7;2.6;;;;;;;;;;;;;
2021/04/14 03:11:00;;;;;;;2.8;2.4;;;;;;;;;;;;;
2021/04/14 03:13:26;;;;;;;3.6;2.8;;;;;;;;;;;;;
2021/04/14 03:15:51;;;;;;;2.6;2.2;;;;;;;;;;;;;
2021/04/14 03:18:17;;;;;;;4.6;2.6;;;;;;;;;;;;;
2021/04/14 03:20:42;;;;;;;3.6;2.5;;;;;;;;;;;;;
2021/04/14 03:23:08;;;;;;;4.1;2.9;;;;;;;;;;;;;
2021/04/14 03:25:33;;;;;;;3.1;2.5;;;;;;;;;;;;;
2021/04/14 03:27:59;;;;;;;3.3;2.5;;;;;;;;;;;;;
2021/04/14 03:30:24;;;;;;;4.5;3.1;;;;;;;;;;;;;
2021/04/14 03:32:50;;;;;;;3.4;2.8;;;;;;;;;;;;;
2021/04/14 03:35:15;;;;;;;2.8;2.5;;;;;;;;;;;;;
2021/04/14 03:37:42;;;;;;;3.3;2.2;;;;;;;;;;;;;
2021/04/14 03:40:08;;;;;;;2.5;2.3;;;;;;;;;;;;;
2021/04/14 03:42:33;;;;;;;3.5;1.9;;;;;;;;;;;;;
2021/04/14 03:45:01;;;;;;;4.3;2.2;;;;;;;;;;;;;
2021/04/14 03:47:24;;;;;;;4.9;2.9;;;;;;;;;;;;;
2021/04/14 03:49:49;;;;;;;4.3;3;;;;;;;;;;;;;
2021/04/14 03:52:14;;;;;;;3.6;2.3;;;;;;;;;;;;;
2021/04/14 03:54:40;;;;;;;6.6;2.9;;;;;;;;;;;;;
2021/04/14 03:57:05;;;;;;;5.3;2.8;;;;;;;;;;;;;
2021/04/14 03:59:31;;;;;;;4.5;2.8;;;;;;;;;;;;;
2021/04/14 04:02:30;;;;;;;5.5;3.4;;;;;;;1.03;84.06348;945.9615;;;;
2021/04/14 04:04:55;;;;;;;4.5;2.1;;;;;;;1.1;83.99805;945.9707;;;;
2021/04/14 04:07:22;;;;;;;7.1;3.8;;;;;;;1.1;85.14844;945.9465;;;;
2021/04/14 04:09:47;;;;;;;36.6;18.1;;;;;;;1.18;84.99902;945.9772;;;;
2021/04/14 04:12:15;;;;;;;8.2;5.9;;;;;;;1.19;84.60742;945.9511;;;;
2021/04/14 04:14:47;;;;;;;4.9;3.8;;;;;;;1.21;84.70215;946.0162;;;;
2021/04/14 04:17:06;;;;;;;2.9;2.1;;;;;;;1.25;84.35254;945.964;;;;
2021/04/14 04:19:31;;;;;;;4.5;3.3;;;;;;;1.24;83.62402;945.8953;;;;
2021/04/14 04:21:57;;;;;;;6.4;3;;;;;;;1.23;83.43262;945.9371;;;;
2021/04/14 04:24:22;;;;;;;3.4;2.3;;;;;;;;;;;;;
2021/04/14 04:26:47;;;;;;;4.9;3.6;;;;;;;;;;;;;
2021/04/14 04:29:12;;;;;;;4.8;2.9;;;;;;;;;;;;;
2021/04/14 04:31:37;;;;;;;3.9;2.9;;;;;;;;;;;;;
2021/04/14 04:34:02;;;;;;;3.8;2.7;;;;;;;;;;;;;
2021/04/14 04:36:28;;;;;;;2.7;2.1;;;;;;;;;;;;;
2021/04/14 04:38:53;;;;;;;4.9;3.2;;;;;;;;;;;;;
2021/04/14 04:41:19;;;;;;;5;3.1;;;;;;;;;;;;;
2021/04/14 04:43:44;;;;;;;4.8;2.9;;;;;;;;;;;;;
2021/04/14 04:46:11;;;;;;;5.3;3.3;;;;;;;;;;;;;
2021/04/14 04:48:36;;;;;;;3.4;2.7;;;;;;;;;;;;;
2021/04/14 04:51:01;;;;;;;2.3;2;;;;;;;;;;;;;
2021/04/14 04:53:26;;;;;;;3;2.3;;;;;;;;;;;;;
2021/04/14 04:55:53;;;;;;;2.7;2.2;;;;;;;;;;;;;
2021/04/14 04:58:20;;;;;;;5.9;2.9;;;;;;;;;;;;;
2021/04/14 05:00:46;;;;;;;3.2;2.5;;;;;;;;;;;;;
2021/04/14 05:03:10;;;;;;;4;2.8;;;;;;;;;;;;;
2021/04/14 05:05:35;;;;;;;3.3;2.1;;;;;;;;;;;;;
2021/04/14 05:08:00;;;;;;;3.6;2.5;;;;;;;;;;;;;
2021/04/14 05:10:27;;;;;;;4;2.5;;;;;;;;;;;;;
2021/04/14 05:12:51;;;;;;;5.4;3.3;;;;;;;;;;;;;
2021/04/14 05:15:19;;;;;;;3.4;2.7;;;;;;;;;;;;;
2021/04/14 05:17:44;;;;;;;4.4;3.4;;;;;;;;;;;;;
2021/04/14 05:20:09;;;;;;;7.8;3.7;;;;;;;;;;;;;
2021/04/14 05:22:35;;;;;;;3.5;2.9;;;;;;;;;;;;;
2021/04/14 05:25:00;;;;;;;4.5;3.2;;;;;;;;;;;;;
2021/04/14 05:27:26;;;;;;;7.5;4.3;;;;;;;;;;;;;
2021/04/14 05:29:51;;;;;;;4.7;3.3;;;;;;;;;;;;;
2021/04/14 05:32:16;;;;;;;6.1;3.5;;;;;;;;;;;;;
2021/04/14 05:34:42;;;;;;;3.2;2.9;;;;;;;;;;;;;
2021/04/14 05:37:07;;;;;;;5.9;3.3;;;;;;;;;;;;;
2021/04/14 05:39:33;;;;;;;4.9;3.5;;;;;;;;;;;;;
2021/04/14 05:41:58;;;;;;;3.8;2.8;;;;;;;;;;;;;
2021/04/14 05:44:25;;;;;;;3.8;2.9;;;;;;;;;;;;;
2021/04/14 05:46:50;;;;;;;4.8;3.3;;;;;;;;;;;;;
2021/04/14 05:49:16;;;;;;;6.1;2.9;;;;;;;;;;;;;
2021/04/14 05:51:41;;;;;;;6;3.1;;;;;;;;;;;;;
2021/04/14 05:54:06;;;;;;;6.3;3.7;;;;;;;;;;;;;
2021/04/14 05:56:32;;;;;;;4.5;2.8;;;;;;;;;;;;;
2021/04/14 05:58:58;;;;;;;7;3;;;;;;;;;;;;;
2021/04/14 06:01:22;;;;;;;4.6;2.9;;;;;;;;;;;;;
2021/04/14 06:03:49;;;;;;;4.1;2.8;;;;;;;;;;;;;
2021/04/14 06:06:14;;;;;;;3.5;2.4;;;;;;;;;;;;;
2021/04/14 06:08:40;;;;;;;3.5;1.9;;;;;;;;;;;;;
2021/04/14 06:11:05;;;;;;;4.8;2;;;;;;;;;;;;;
2021/04/14 06:13:32;;;;;;;1;0.9;;;;;;;;;;;;;
2021/04/14 06:15:57;;;;;;;2.4;1.8;;;;;;;;;;;;;
2021/04/14 06:18:23;;;;;;;2;1;;;;;;;;;;;;;
2021/04/14 06:20:48;;;;;;;1.3;1.1;;;;;;;;;;;;;
2021/04/14 06:23:15;;;;;;;1.5;1.1;;;;;;;;;;;;;
2021/04/14 06:25:41;;;;;;;1.2;1;;;;;;;;;;;;;
2021/04/14 06:28:05;;;;;;;1.7;1.1;;;;;;;;;;;;;
2021/04/14 06:30:30;;;;;;;2.2;1.6;;;;;;;;;;;;;
2021/04/14 06:32:56;;;;;;;1.2;1.1;;;;;;;;;;;;;
2021/04/14 06:35:21;;;;;;;1.4;1;;;;;;;;;;;;;
2021/04/14 06:37:47;;;;;;;1.7;1.2;;;;;;;;;;;;;
2021/04/14 06:40:24;;;;;;;1.1;1;;;;;;;;;;;;;
2021/04/14 06:42:45;;;;;;;2.9;1.4;;;;;;;;;;;;;
2021/04/14 06:45:03;;;;;;;1.7;1.2;;;;;;;;;;;;;
2021/04/14 06:47:28;;;;;;;1.2;1.1;;;;;;;;;;;;;
2021/04/14 06:49:53;;;;;;;1.7;1.3;;;;;;;;;;;;;
2021/04/14 06:52:18;;;;;;;1.6;1.1;;;;;;;;;;;;;
2021/04/14 06:54:43;;;;;;;1;0.9;;;;;;;;;;;;;
2021/04/14 06:57:08;;;;;;;1.9;1.2;;;;;;;;;;;;;
2021/04/14 06:59:34;;;;;;;1.9;1.3;;;;;;;;;;;;;
2021/04/14 07:01:59;;;;;;;3.3;1.3;;;;;;;;;;;;;
2021/04/14 07:04:25;;;;;;;3.6;1.9;;;;;;;;;;;;;
2021/04/14 07:06:50;;;;;;;3.1;1.7;;;;;;;;;;;;;
2021/04/14 07:09:15;;;;;;;2.2;1.5;;;;;;;;;;;;;
2021/04/14 07:11:40;;;;;;;4.6;1.4;;;;;;;;;;;;;
2021/04/14 07:14:05;;;;;;;1.8;1.3;;;;;;;;;;;;;
2021/04/14 07:16:36;;;;;;;1.7;1.4;;;;;;;;;;;;;
2021/04/14 07:19:00;;;;;;;1.7;1.4;;;;;;;;;;;;;
2021/04/14 07:21:25;;;;;;;2.5;1.9;;;;;;;;;;;;;
2021/04/14 07:23:50;;;;;;;2.1;1.7;;;;;;;;;;;;;
2021/04/14 07:26:15;;;;;;;2;1.8;;;;;;;;;;;;;
2021/04/14 07:28:40;;;;;;;3.4;2.2;;;;;;;;;;;;;
2021/04/14 07:31:06;;;;;;;7.1;3.9;;;;;;;;;;;;;
2021/04/14 07:33:31;;;;;;;7.3;4.8;;;;;;;;;;;;;
2021/04/14 07:35:56;;;;;;;4;2.3;;;;;;;;;;;;;
2021/04/14 07:38:21;;;;;;;2.6;1.6;;;;;;;;;;;;;
2021/04/14 07:40:46;;;;;;;2.8;1.5;;;;;;;;;;;;;
2021/04/14 07:43:13;;;;;;;1.4;1.3;;;;;;;;;;;;;
2021/04/14 07:45:38;;;;;;;3.5;1.9;;;;;;;;;;;;;
2021/04/14 07:48:02;;;;;;;3.5;1.8;;;;;;;;;;;;;
2021/04/14 07:50:27;;;;;;;4.3;1.4;;;;;;;;;;;;;
2021/04/14 07:52:53;;;;;;;4.6;2.6;;;;;;;;;;;;;
2021/04/14 07:55:17;;;;;;;2.5;1.7;;;;;;;;;;;;;
2021/04/14 07:57:43;;;;;;;2.4;2;;;;;;;;;;;;;
2021/04/14 08:00:08;;;;;;;3.6;2.5;;;;;;;;;;;;;
2021/04/14 08:02:33;;;;;;;2.8;1.8;;;;;;;;;;;;;
2021/04/14 08:04:58;;;;;;;4;1.7;;;;;;;;;;;;;
2021/04/14 08:07:23;;;;;;;3.2;2.1;;;;;;;;;;;;;
2021/04/14 08:09:49;;;;;;;1.8;1.3;;;;;;;;;;;;;
2021/04/14 08:12:14;;;;;;;3.3;1.7;;;;;;;;;;;;;
2021/04/14 08:14:41;;;;;;;2;1.6;;;;;;;;;;;;;
2021/04/14 08:17:04;;;;;;;1.8;1.3;;;;;;;;;;;;;
2021/04/14 08:19:29;;;;;;;1.2;1.1;;;;;;;;;;;;;
2021/04/14 08:21:55;;;;;;;1.6;1.3;;;;;;;;;;;;;
2021/04/14 08:24:20;;;;;;;1.8;1.2;;;;;;;;;;;;;
2021/04/14 08:26:46;;;;;;;1.3;1.2;;;;;;;;;;;;;
2021/04/14 08:29:11;;;;;;;1.2;0.7;;;;;;;;;;;;;
2021/04/14 08:31:45;;;;;;;1.8;1.2;;;;;;;;;;;;;
2021/04/14 08:34:01;;;;;;;1;0.8;;;;;;;;;;;;;
2021/04/14 08:36:27;;;;;;;2.2;1.2;;;;;;;;;;;;;
2021/04/14 08:38:52;;;;;;;2.4;1.3;;;;;;;;;;;;;
2021/04/14 08:41:17;;;;;;;3.2;1.2;;;;;;;;;;;;;
2021/04/14 08:43:44;;;;;;;2;1;;;;;;;;;;;;;
2021/04/14 08:46:07;;;;;;;1;0.9;;;;;;;;;;;;;
2021/04/14 08:48:33;;;;;;;1.4;0.9;;;;;;;;;;;;;
2021/04/14 08:50:58;;;;;;;1;0.9;;;;;;;;;;;;;
2021/04/14 08:53:23;;;;;;;4;1.5;;;;;;;;;;;;;
2021/04/14 08:55:49;;;;;;;1.8;0.9;;;;;;;;;;;;;
2021/04/14 08:58:16;;;;;;;0.9;0.7;;;;;;;;;;;;;
2021/04/14 09:00:40;;;;;;;0.6;0.5;;;;;;;;;;;;;
2021/04/14 09:03:06;;;;;;;0.7;0.6;;;;;;;;;;;;;
2021/04/14 09:05:32;;;;;;;4.4;0.9;;;;;;;;;;;;;
2021/04/14 09:07:57;;;;;;;1.3;0.9;;;;;;;;;;;;;
2021/04/14 09:10:22;;;;;;;1.8;1;;;;;;;;;;;;;
2021/04/14 09:12:50;;;;;;;1.2;0.8;;;;;;;;;;;;;
2021/04/14 09:15:14;;;;;;;1.1;0.8;;;;;;;;;;;;;
2021/04/14 09:17:40;;;;;;;1.2;0.6;;;;;;;;;;;;;
2021/04/14 09:20:05;;;;;;;1;0.7;;;;;;;;;;;;;
2021/04/14 09:22:30;;;;;;;1.7;0.9;;;;;;;;;;;;;
2021/04/14 09:24:55;;;;;;;1.6;1;;;;;;;;;;;;;
2021/04/14 09:27:20;;;;;;;1.2;0.9;;;;;;;;;;;;;
2021/04/14 09:29:45;;;;;;;1.5;1.1;;;;;;;;;;;;;
2021/04/14 09:32:11;;;;;;;0.9;0.8;;;;;;;;;;;;;
2021/04/14 09:34:36;;;;;;;0.8;0.7;;;;;;;;;;;;;
2021/04/14 09:37:01;;;;;;;1.6;0.8;;;;;;;;;;;;;
2021/04/14 09:39:26;;;;;;;1.1;0.6;;;;;;;;;;;;;
2021/04/14 09:41:51;;;;;;;1.5;1;;;;;;;;;;;;;
2021/04/14 09:44:16;;;;;;;1;0.9;;;;;;;;;;;;;
2021/04/14 09:46:42;;;;;;;1.7;0.9;;;;;;;;;;;;;
2021/04/14 09:49:07;;;;;;;1.1;0.8;;;;;;;;;;;;;
2021/04/14 09:51:32;;;;;;;1;0.8;;;;;;;;;;;;;
2021/04/14 09:53:58;;;;;;;1.1;0.8;;;;;;;;;;;;;
2021/04/14 09:56:23;;;;;;;2.7;1;;;;;;;;;;;;;
2021/04/14 09:58:48;;;;;;;1.2;1;;;;;;;;;;;;;
2021/04/14 10:01:14;;;;;;;2.3;1;;;;;;;;;;;;;
2021/04/14 10:03:42;;;;;;;1;0.9;;;;;;;;;;;;;
2021/04/14 10:06:05;;;;;;;1.2;1;;;;;;;;;;;;;
2021/04/14 10:08:30;;;;;;;1.6;1.2;;;;;;;;;;;;;
2021/04/14 10:10:56;;;;;;;0.9;0.8;;;;;;;;;;;;;
2021/04/14 10:13:21;;;;;;;2.7;1.2;;;;;;;;;;;;;
2021/04/14 10:15:48;;;;;;;1.5;0.7;;;;;;;;;;;;;
2021/04/14 10:18:13;;;;;;;1.6;1.1;;;;;;;;;;;;;
2021/04/14 10:20:39;;;;;;;1.1;1;;;;;;;;;;;;;
2021/04/14 10:23:06;;;;;;;1.4;1.1;;;;;;;;;;;;;
2021/04/14 10:25:31;;;;;;;0.9;0.8;;;;;;;;;;;;;
2021/04/14 10:27:56;;;;;;;2;1;;;;;;;;;;;;;
2021/04/14 10:30:22;;;;;;;0.8;0.8;;;;;;;;;;;;;
2021/04/14 10:32:47;;;;;;;1;0.9;;;;;;;;;;;;;
2021/04/14 10:35:13;;;;;;;0.9;0.8;;;;;;;;;;;;;
2021/04/14 10:37:38;;;;;;;1.7;0.6;;;;;;;;;;;;;
2021/04/14 10:40:03;;;;;;;1.1;0.8;;;;;;;;;;;;;
2021/04/14 10:42:28;;;;;;;0.5;0.5;;;;;;;;;;;;;
2021/04/14 10:44:53;;;;;;;1.4;1.1;;;;;;;;;;;;;
2021/04/14 10:47:18;;;;;;;2.4;0.9;;;;;;;;;;;;;
2021/04/14 10:49:44;;;;;;;1.2;0.7;;;;;;;;;;;;;
2021/04/14 10:52:09;;;;;;;1;0.9;;;;;;;;;;;;;
2021/04/14 10:54:34;;;;;;;1;0.8;;;;;;;;;;;;;
2021/04/14 10:57:01;;;;;;;1.2;0.6;;;;;;;;;;;;;
2021/04/14 10:59:26;;;;;;;0.5;0.5;;;;;;;;;;;;;
2021/04/14 11:01:53;;;;;;;0.9;0.8;;;;;;;;;;;;;
2021/04/14 11:04:18;;;;;;;1.1;0.8;;;;;;;;;;;;;
2021/04/14 11:06:43;;;;;;;1.9;0.5;;;;;;;;;;;;;
2021/04/14 11:09:08;;;;;;;0.9;0.5;;;;;;;;;;;;;
2021/04/14 11:11:34;;;;;;;0.5;0.3;;;;;;;;;;;;;
2021/04/14 11:13:59;;;;;;;1.4;0.9;;;;;;;;;;;;;
2021/04/14 11:16:26;;;;;;;0.5;0.5;;;;;;;;;;;;;
2021/04/14 11:18:50;;;;;;;1.1;0.8;;;;;;;;;;;;;
2021/04/14 11:21:17;;;;;;;1.7;0.9;;;;;;;;;;;;;
2021/04/14 11:23:42;;;;;;;3.7;0.7;;;;;;;;;;;;;
2021/04/14 11:26:07;;;;;;;1.3;0.8;;;;;;;;;;;;;
2021/04/14 11:28:32;;;;;;;0.5;0.5;;;;;;;;;;;;;
2021/04/14 11:30:59;;;;;;;1;0.6;;;;;;;;;;;;;
2021/04/14 11:33:24;;;;;;;1;0.6;;;;;;;;;;;;;
2021/04/14 11:35:49;;;;;;;0.7;0.5;;;;;;;;;;;;;
2021/04/14 11:38:14;;;;;;;1.4;0.6;;;;;;;;;;;;;
2021/04/14 11:40:39;;;;;;;0.5;0.4;;;;;;;;;;;;;
2021/04/14 11:43:04;;;;;;;0.5;0.5;;;;;;;;;;;;;
2021/04/14 11:45:30;;;;;;;1.8;0.9;;;;;;;;;;;;;
2021/04/14 11:47:55;;;;;;;0.4;0.4;;;;;;;;;;;;;
2021/04/14 11:50:20;;;;;;;0.4;0.4;;;;;;;;;;;;;
2021/04/14 11:52:45;;;;;;;0.9;0.8;;;;;;;;;;;;;
2021/04/14 11:55:11;;;;;;;0.9;0.7;;;;;;;;;;;;;
2021/04/14 11:57:36;;;;;;;0.5;0.5;;;;;;;;;;;;;
2021/04/14 12:00:01;;;;;;;1.2;0.9;;;;;;;;;;;;;
2021/04/14 12:02:26;;;;;;;0.8;0.8;;;;;;;;;;;;;
2021/04/14 12:04:51;;;;;;;1.7;1.1;;;;;;;;;;;;;
2021/04/14 12:07:16;;;;;;;0.7;0.7;;;;;;;;;;;;;
2021/04/14 12:09:43;;;;;;;0.7;0.6;;;;;;;;;;;;;
2021/04/14 12:12:09;;;;;;;4.4;1.1;;;;;;;;;;;;;
2021/04/14 12:14:33;;;;;;;2.4;0.9;;;;;;;;;;;;;
2021/04/14 12:16:58;;;;;;;2.3;1.1;;;;;;;;;;;;;
2021/04/14 12:19:25;;;;;;;0.6;0.5;;;;;;;;;;;;;
2021/04/14 12:21:50;;;;;;;3;1.1;;;;;;;;;;;;;
2021/04/14 12:24:16;;;;;;;1.2;0.6;;;;;;;;;;;;;
2021/04/14 12:26:40;;;;;;;1.6;0.9;;;;;;;;;;;;;
2021/04/14 12:29:05;;;;;;;1.1;0.9;;;;;;;;;;;;;
2021/04/14 12:31:31;;;;;;;1.6;0.9;;;;;;;;;;;;;
2021/04/14 12:33:56;;;;;;;1.2;0.9;;;;;;;;;;;;;
2021/04/14 12:36:21;;;;;;;0.8;0.6;;;;;;;;;;;;;
2021/04/14 12:38:46;;;;;;;1;0.8;;;;;;;;;;;;;
2021/04/14 12:41:11;;;;;;;1;0.6;;;;;;;;;;;;;
2021/04/14 12:43:37;;;;;;;2.4;0.9;;;;;;;;;;;;;
2021/04/14 12:46:02;;;;;;;0.7;0.6;;;;;;;;;;;;;
2021/04/14 12:48:27;;;;;;;0.3;0.3;;;;;;;;;;;;;
2021/04/14 12:50:53;;;;;;;0.8;0.7;;;;;;;;;;;;;
2021/04/14 12:53:18;;;;;;;2.3;0.6;;;;;;;;;;;;;
2021/04/14 12:55:43;;;;;;;0.8;0.7;;;;;;;;;;;;;
2021/04/14 12:58:08;;;;;;;0.9;0.7;;;;;;;;;;;;;
2021/04/14 13:00:33;;;;;;;0.6;0.5;;;;;;;;;;;;;
2021/04/14 13:02:58;;;;;;;2;0.7;;;;;;;;;;;;;
2021/04/14 13:05:23;;;;;;;2.2;0.6;;;;;;;;;;;;;
2021/04/14 13:07:48;;;;;;;0.4;0.3;;;;;;;;;;;;;
2021/04/14 13:10:14;;;;;;;0.4;0.4;;;;;;;;;;;;;
2021/04/14 13:12:39;;;;;;;0.6;0.3;;;;;;;;;;;;;
2021/04/14 13:15:06;;;;;;;0.5;0.5;;;;;;;;;;;;;
2021/04/14 13:17:31;;;;;;;0.7;0.4;;;;;;;;;;;;;
2021/04/14 13:19:56;;;;;;;1.7;0.9;;;;;;;;;;;;;
2021/04/14 13:22:21;;;;;;;1.2;0.5;;;;;;;;;;;;;
2021/04/14 13:24:46;;;;;;;0.6;0.6;;;;;;;;;;;;;
2021/04/14 13:27:11;;;;;;;0.5;0.4;;;;;;;;;;;;;
2021/04/14 13:29:36;;;;;;;0.7;0.5;;;;;;;;;;;;;
2021/04/14 13:32:02;;;;;;;0.5;0.4;;;;;;;;;;;;;
2021/04/14 13:34:27;;;;;;;0.9;0.5;;;;;;;;;;;;;
2021/04/14 13:36:53;;;;;;;0.7;0.6;;;;;;;;;;;;;
2021/04/14 13:39:19;;;;;;;0.4;0.4;;;;;;;;;;;;;
2021/04/14 13:41:43;;;;;;;1.7;0.8;;;;;;;;;;;;;
2021/04/14 13:44:08;;;;;;;0.5;0.5;;;;;;;;;;;;;
2021/04/14 13:46:34;;;;;;;0.5;0.5;;;;;;;;;;;;;
2021/04/14 13:49:00;;;;;;;1.9;0.9;;;;;;;;;;;;;
2021/04/14 13:51:26;;;;;;;0.5;0.4;;;;;;;;;;;;;
2021/04/14 13:53:51;;;;;;;0.5;0.4;;;;;;;;;;;;;
2021/04/14 13:56:16;;;;;;;0.4;0.4;;;;;;;;;;;;;
2021/04/14 13:58:41;;;;;;;0.6;0.6;;;;;;;;;;;;;
2021/04/14 14:01:06;;;;;;;0.7;0.4;;;;;;;;;;;;;
2021/04/14 14:03:32;;;;;;;0.8;0.6;;;;;;;;;;;;;
2021/04/14 14:05:57;;;;;;;0.4;0.4;;;;;;;;;;;;;
2021/04/14 14:08:22;;;;;;;4.7;1;;;;;;;;;;;;;
2021/04/14 14:10:47;;;;;;;0.7;0.6;;;;;;;;;;;;;
2021/04/14 14:13:13;;;;;;;0.6;0.6;;;;;;;;;;;;;
2021/04/14 14:15:38;;;;;;;0.7;0.5;;;;;;;;;;;;;
2021/04/14 14:18:04;;;;;;;0.7;0.4;;;;;;;;;;;;;
2021/04/14 14:20:30;;;;;;;0.6;0.6;;;;;;;;;;;;;
2021/04/14 14:22:55;;;;;;;1.2;0.8;;;;;;;;;;;;;
2021/04/14 14:25:20;;;;;;;0.5;0.5;;;;;;;;;;;;;
2021/04/14 14:27:47;;;;;;;0.4;0.4;;;;;;;;;;;;;
2021/04/14 14:30:11;;;;;;;1.5;0.7;;;;;;;;;;;;;
2021/04/14 14:32:37;;;;;;;0.7;0.5;;;;;;;;;;;;;
2021/04/14 14:35:09;;;;;;;0.7;0.6;;;;;;;;;;;;;
2021/04/14 14:37:28;;;;;;;0.9;0.6;;;;;;;;;;;;;
2021/04/14 14:39:53;;;;;;;0.5;0.5;;;;;;;;;;;;;
2021/04/14 14:42:18;;;;;;;0.6;0.6;;;;;;;;;;;;;
2021/04/14 14:44:43;;;;;;;0.5;0.5;;;;;;;;;;;;;
2021/04/14 14:47:08;;;;;;;1;0.7;;;;;;;;;;;;;
2021/04/14 14:49:34;;;;;;;1.1;0.5;;;;;;;;;;;;;
2021/04/14 14:51:59;;;;;;;1.3;0.6;;;;;;;;;;;;;
2021/04/14 14:54:25;;;;;;;5.5;1.2;;;;;;;;;;;;;
2021/04/14 14:56:50;;;;;;;1.5;1;;;;;;;;;;;;;
2021/04/14 14:59:16;;;;;;;1.4;0.6;;;;;;;;;;;;;
2021/04/14 15:01:41;;;;;;;0.5;0.5;;;;;;;;;;;;;
2021/04/14 15:04:06;;;;;;;1;0.5;;;;;;;;;;;;;
2021/04/14 15:06:31;;;;;;;0.6;0.5;;;;;;;;;;;;;
2021/04/14 15:08:56;;;;;;;1.6;1;;;;;;;;;;;;;
2021/04/14 15:11:22;;;;;;;2.4;0.9;;;;;;;;;;;;;
2021/04/14 15:13:47;;;;;;;1.6;1.2;;;;;;;;;;;;;
2021/04/14 15:16:13;;;;;;;0.9;0.5;;;;;;;;;;;;;
2021/04/14 15:18:38;;;;;;;0.6;0.6;;;;;;;;;;;;;
2021/04/14 15:21:04;;;;;;;0.6;0.6;;;;;;;;;;;;;
2021/04/14 15:23:29;;;;;;;0.5;0.5;;;;;;;;;;;;;
2021/04/14 15:25:54;;;;;;;0.9;0.8;;;;;;;;;;;;;
2021/04/14 15:28:19;;;;;;;0.7;0.6;;;;;;;;;;;;;
2021/04/14 15:30:46;;;;;;;2;1;;;;;;;;;;;;;
2021/04/14 15:33:11;;;;;;;1.7;0.8;;;;;;;;;;;;;
2021/04/14 15:35:36;;;;;;;0.5;0.5;;;;;;;;;;;;;
2021/04/14 15:38:01;;;;;;;1.7;0.6;;;;;;;;;;;;;
2021/04/14 15:40:28;;;;;;;1.3;1.1;;;;;;;;;;;;;
2021/04/14 15:42:53;;;;;;;0.5;0.5;;;;;;;;;;;;;
2021/04/14 15:45:18;;;;;;;1.2;1.1;;;;;;;;;;;;;
2021/04/14 15:47:44;;;;;;;1;0.7;;;;;;;;;;;;;
2021/04/14 15:50:10;;;;;;;0.5;0.5;;;;;;;;;;;;;
2021/04/14 15:52:35;;;;;;;1.8;0.9;;;;;;;;;;;;;
2021/04/14 15:55:00;;;;;;;1.3;0.5;;;;;;;;;;;;;
2021/04/14 15:57:26;;;;;;;1.2;0.8;;;;;;;;;;;;;
2021/04/14 15:59:54;;;;;;;1.1;0.7;;;;;;;;;;;;;
2021/04/14 16:02:17;;;;;;;1.6;1;;;;;;;;;;;;;
2021/04/14 16:04:43;;;;;;;0.6;0.6;;;;;;;;;;;;;
2021/04/14 16:07:08;;;;;;;1.8;0.8;;;;;;;;;;;;;
2021/04/14 16:09:33;;;;;;;1.7;0.8;;;;;;;;;;;;;
2021/04/14 16:11:58;;;;;;;1.7;0.8;;;;;;;;;;;;;
2021/04/14 16:14:24;;;;;;;1;0.7;;;;;;;;;;;;;
2021/04/14 16:16:49;;;;;;;2.3;1.1;;;;;;;;;;;;;
2021/04/14 16:19:14;;;;;;;1.4;0.7;;;;;;;;;;;;;
2021/04/14 16:21:40;;;;;;;1.5;0.9;;;;;;;;;;;;;
2021/04/14 16:24:05;;;;;;;1;0.9;;;;;;;;;;;;;
2021/04/14 16:26:30;;;;;;;0.5;0.5;;;;;;;;;;;;;
2021/04/14 16:28:56;;;;;;;0.7;0.7;;;;;;;;;;;;;
2021/04/14 16:31:20;;;;;;;1.4;0.9;;;;;;;;;;;;;
2021/04/14 16:33:46;;;;;;;0.7;0.7;;;;;;;;;;;;;
2021/04/14 16:36:11;;;;;;;1.2;1.1;;;;;;;;;;;;;
2021/04/14 16:38:36;;;;;;;1.1;1;;;;;;;;;;;;;
2021/04/14 16:41:01;;;;;;;1.3;0.7;;;;;;;;;;;;;
2021/04/14 16:43:28;;;;;;;1;0.9;;;;;;;;;;;;;
2021/04/14 16:45:52;;;;;;;0.9;0.9;;;;;;;;;;;;;
2021/04/14 16:48:18;;;;;;;0.8;0.7;;;;;;;;;;;;;
2021/04/14 16:50:42;;;;;;;1.6;0.9;;;;;;;;;;;;;
2021/04/14 16:53:09;;;;;;;1.1;0.5;;;;;;;;;;;;;
2021/04/14 16:55:34;;;;;;;1.8;1.2;;;;;;;;;;;;;
2021/04/14 16:58:00;;;;;;;2.4;1.5;;;;;;;;;;;;;
2021/04/14 17:00:25;;;;;;;1;0.8;;;;;;;;;;;;;
2021/04/14 17:02:51;;;;;;;2.4;1.2;;;;;;;;;;;;;
2021/04/14 17:05:38;;;;;;;;;;;;;;;;;;;;;
2021/04/14 17:07:45;;;;;;;1.4;0.9;;;;;;;;;;;;;
2021/04/14 17:10:10;;;;;;;7.4;1.7;;;;;;;;;;;;;
2021/04/14 17:12:35;;;;;;;4.3;1.1;;;;;;;;;;;;;
2021/04/14 17:15:00;;;;;;;1;0.7;;;;;;;;;;;;;
2021/04/14 17:17:26;;;;;;;3.6;1.1;;;;;;;;;;;;;
2021/04/14 17:19:52;;;;;;;1.1;0.7;;;;;;;;;;;;;
2021/04/14 17:22:17;;;;;;;1.6;1.1;;;;;;;;;;;;;
2021/04/14 17:24:42;;;;;;;1.3;1.1;;;;;;;;;;;;;
2021/04/14 17:27:07;;;;;;;1.4;1.1;;;;;;;;;;;;;
2021/04/14 17:29:33;;;;;;;1.2;0.9;;;;;;;;;;;;;
2021/04/14 17:31:58;;;;;;;2;1.2;;;;;;;;;;;;;
2021/04/14 17:34:25;;;;;;;0.7;0.7;;;;;;;;;;;;;
2021/04/14 17:36:50;;;;;;;1.2;1;;;;;;;;;;;;;
2021/04/14 17:39:17;;;;;;;1.9;1.2;;;;;;;;;;;;;
2021/04/14 17:41:42;;;;;;;0.8;0.8;;;;;;;;;;;;;
2021/04/14 17:44:07;;;;;;;1.6;0.9;;;;;;;;;;;;;
2021/04/14 17:46:32;;;;;;;4.7;0.9;;;;;;;;;;;;;
2021/04/14 17:48:58;;;;;;;1.8;1.1;;;;;;;;;;;;;
2021/04/14 17:51:23;;;;;;;1.1;1;;;;;;;;;;;;;
2021/04/14 17:53:49;;;;;;;1.4;1.1;;;;;;;;;;;;;
2021/04/14 17:56:14;;;;;;;1;0.9;;;;;;;;;;;;;
2021/04/14 17:58:40;;;;;;;2.3;0.9;;;;;;;;;;;;;
2021/04/14 18:01:06;;;;;;;1.1;1;;;;;;;;;;;;;
2021/04/14 18:03:31;;;;;;;0.9;0.9;;;;;;;;;;;;;
2021/04/14 18:05:56;;;;;;;0.9;0.9;;;;;;;;;;;;;
2021/04/14 18:08:22;;;;;;;5.7;1.1;;;;;;;;;;;;;
2021/04/14 18:10:48;;;;;;;1.9;1;;;;;;;;;;;;;
2021/04/14 18:13:13;;;;;;;2.3;1.4;;;;;;;;;;;;;
2021/04/14 18:15:38;;;;;;;3.2;1.8;;;;;;;;;;;;;
2021/04/14 18:18:05;;;;;;;1.1;1;;;;;;;;;;;;;
2021/04/14 18:20:30;;;;;;;1.6;1.1;;;;;;;;;;;;;
2021/04/14 18:22:56;;;;;;;1.6;1.2;;;;;;;;;;;;;
2021/04/14 18:25:21;;;;;;;2.7;1.8;;;;;;;;;;;;;
2021/04/14 18:27:46;;;;;;;2;1.6;;;;;;;;;;;;;
2021/04/14 18:30:12;;;;;;;3.6;1.9;;;;;;;;;;;;;
2021/04/14 18:32:37;;;;;;;2.5;1.8;;;;;;;;;;;;;
2021/04/14 18:35:02;;;;;;;2.6;1.8;;;;;;;;;;;;;
2021/04/14 18:37:28;;;;;;;2.2;1.9;;;;;;;;;;;;;
2021/04/14 18:39:54;;;;;;;2;1.8;;;;;;;;;;;;;
2021/04/14 18:42:19;;;;;;;5.3;1.9;;;;;;;;;;;;;
2021/04/14 18:44:45;;;;;;;2.7;2;;;;;;;;;;;;;
2021/04/14 18:47:10;;;;;;;1.9;1.7;;;;;;;;;;;;;
2021/04/14 18:49:35;;;;;;;3;2.3;;;;;;;;;;;;;
2021/04/14 18:52:00;;;;;;;3;1.7;;;;;;;;;;;;;
2021/04/14 18:54:26;;;;;;;5.8;1.9;;;;;;;;;;;;;
2021/04/14 18:56:51;;;;;;;2.9;2.1;;;;;;;;;;;;;
2021/04/14 18:59:16;;;;;;;2.8;2.3;;;;;;;;;;;;;
2021/04/14 19:01:41;;;;;;;8.1;2.3;;;;;;;;;;;;;
2021/04/14 19:04:06;;;;;;;2.1;1.9;;;;;;;;;;;;;
2021/04/14 19:06:32;;;;;;;2.9;2.1;;;;;;;;;;;;;
2021/04/14 19:08:59;;;;;;;2.7;2;;;;;;;;;;;;;
2021/04/14 19:11:23;;;;;;;2.9;2.1;;;;;;;;;;;;;
2021/04/14 19:13:48;;;;;;;2.8;1.9;;;;;;;;;;;;;
2021/04/14 19:16:14;;;;;;;2.1;1.7;;;;;;;;;;;;;
2021/04/14 19:18:40;;;;;;;2.7;2;;;;;;;;;;;;;
2021/04/14 19:21:05;;;;;;;4.7;2.3;;;;;;;;;;;;;
2021/04/14 19:23:30;;;;;;;2.5;1.9;;;;;;;;;;;;;
2021/04/14 19:25:56;;;;;;;4.2;2.3;;;;;;;;;;;;;
2021/04/14 19:28:21;;;;;;;3.3;2.1;;;;;;;;;;;;;
2021/04/14 19:30:49;;;;;;;3.4;2.1;;;;;;;;;;;;;
2021/04/14 19:33:14;;;;;;;3;2.2;;;;;;;;;;;;;
2021/04/14 19:35:39;;;;;;;5.9;2;;;;;;;;;;;;;
2021/04/14 19:38:04;;;;;;;3.3;1.6;;;;;;;;;;;;;
2021/04/14 19:40:30;;;;;;;3;2;;;;;;;;;;;;;
2021/04/14 19:42:56;;;;;;;3.3;2.2;;;;;;;;;;;;;
2021/04/14 19:45:21;;;;;;;2.7;2.1;;;;;;;;;;;;;
2021/04/14 19:47:46;;;;;;;3.1;2.1;;;;;;;;;;;;;
2021/04/14 19:50:11;;;;;;;2.7;1.9;;;;;;;;;;;;;
2021/04/14 19:52:36;;;;;;;4.4;2.6;;;;;;;;;;;;;
2021/04/14 19:55:02;;;;;;;4.1;3;;;;;;;;;;;;;
2021/04/14 19:57:27;;;;;;;3.8;2.4;;;;;;;;;;;;;
2021/04/14 19:59:53;;;;;;;4.3;2;;;;;;;;;;;;;
2021/04/14 20:02:18;;;;;;;2;1.6;;;;;;;;;;;;;
2021/04/14 20:04:44;;;;;;;13.1;5.5;;;;;;;;;;;;;
2021/04/14 20:07:09;;;;;;;6.7;4.2;;;;;;;;;;;;;
2021/04/14 20:09:35;;;;;;;5.2;3.1;;;;;;;;;;;;;
2021/04/14 20:12:00;;;;;;;6.3;3.7;;;;;;;;;;;;;
2021/04/14 20:14:26;;;;;;;3.9;2.7;;;;;;;;;;;;;
2021/04/14 20:16:51;;;;;;;3.7;2.1;;;;;;;;;;;;;
2021/04/14 20:19:18;;;;;;;4.5;2.2;;;;;;;;;;;;;
2021/04/14 20:21:43;;;;;;;2.3;1.9;;;;;;;;;;;;;
2021/04/14 20:24:08;;;;;;;5.7;2.5;;;;;;;;;;;;;
2021/04/14 20:26:34;;;;;;;3.8;2.4;;;;;;;;;;;;;
2021/04/14 20:29:00;;;;;;;2.8;2.3;;;;;;;;;;;;;